LTCI

Van Ferit Melen Airport

Van, Turkey
TAF LTCI 251640Z 2518/2603 10008KT CAVOK
Issued Valid From Valid To
Sep-25 @ 16:40 UTC
(3 hours ago)
Sep-25 @ 18:00 UTC
(an hour ago)
Sep-26 @ 03:00 UTC
(in 8 hours)
Sep-25 @ 18:00 to Sep-26 @ 03:00
TAF LTCI 251640Z 2518/2603 10008KT CAVOK
Wind Visibility Clouds Conditions
100° at 8 knots 10,000+ meters
  • No significant clouds
TAF LTCI 251640Z 2518/2603 10008KT CAVOK
Issued Sep-25 @ 16:40 UTC
(3 hours ago)
Valid From Sep-25 @ 18:00 UTC
(an hour ago)
Valid To Sep-26 @ 03:00 UTC
(in 8 hours)
Sep-25 @ 18:00 - Sep-26 @ 03:00
Wind Visibility
100° at 8 knots 10,000+ meters
Clouds
  • No significant clouds
Conditions